Time;durP1;ratioP1;P1;durP2;ratioP2;P2;SDS_P1;SDS_P2;PMS_P1;PMS_P2;Temp;Humidity;BMP_temperature;BMP_pressure;BME280_temperature;BME280_humidity;BME280_pressure;Samples;Min_cycle;Max_cycle;Signal;HPM_P1;HPM_P2
2023/12/15 00:00:42;;;;;;;12.90;7.90;;;;;;;0.93;100.00;101209.55;105440;1264;98004;-79
2023/12/15 00:03:41;;;;;;;12.00;7.70;;;;;;;0.95;100.00;101213.63;105467;1259;97881;-79
2023/12/15 00:06:27;;;;;;;13.70;8.00;;;;;;;0.97;100.00;101216.30;105573;1263;101387;-79
2023/12/15 00:09:12;;;;;;;12.70;7.80;;;;;;;1.00;100.00;101223.08;105490;1259;99068;-78
2023/12/15 00:11:58;;;;;;;13.20;8.50;;;;;;;1.04;100.00;101228.23;105498;1259;97957;-78
2023/12/15 00:14:44;;;;;;;12.70;8.00;;;;;;;1.07;100.00;101231.02;105485;1263;97979;-79
2023/12/15 00:17:29;;;;;;;14.80;8.30;;;;;;;1.10;100.00;101230.75;105357;1259;98950;-78
2023/12/15 00:20:14;;;;;;;15.00;8.60;;;;;;;1.15;100.00;101228.15;105627;1259;101372;-78
2023/12/15 00:23:00;;;;;;;12.50;8.40;;;;;;;1.19;100.00;101231.87;105651;1259;100046;-78
2023/12/15 00:25:46;;;;;;;12.60;8.20;;;;;;;1.19;100.00;101236.64;105634;1262;99030;-78
2023/12/15 00:28:32;;;;;;;16.70;8.10;;;;;;;1.18;100.00;101238.08;105511;1260;97976;-78
2023/12/15 00:31:17;;;;;;;16.20;8.40;;;;;;;1.20;100.00;101244.98;105472;1263;98545;-79
2023/12/15 00:34:02;;;;;;;14.30;8.10;;;;;;;1.20;100.00;101248.84;105420;1263;101459;-79
2023/12/15 00:36:48;;;;;;;11.50;7.90;;;;;;;1.18;100.00;101250.77;105792;1262;99362;-78
2023/12/15 00:39:37;;;;;;;14.30;8.90;;;;;;;1.17;100.00;101254.89;106386;1259;98923;-78
2023/12/15 00:42:23;;;;;;;11.80;7.50;;;;;;;1.13;100.00;101262.23;105861;1259;97602;-78
2023/12/15 00:45:09;;;;;;;12.60;7.90;;;;;;;1.09;100.00;101269.23;105800;1264;99061;-78
2023/12/15 00:47:54;;;;;;;16.90;8.80;;;;;;;1.06;100.00;101273.80;105480;1263;102132;-78
2023/12/15 00:50:40;;;;;;;15.40;8.50;;;;;;;1.04;100.00;101273.96;105415;1259;99200;-78
2023/12/15 00:53:26;;;;;;;13.20;8.50;;;;;;;1.03;100.00;101278.96;105592;1263;98060;-79
2023/12/15 00:56:11;;;;;;;12.60;8.40;;;;;;;1.01;100.00;101283.30;105603;1259;97999;-78
2023/12/15 00:58:56;;;;;;;15.30;9.30;;;;;;;0.99;100.00;101285.73;105599;1260;97892;-78
2023/12/15 01:01:42;;;;;;;16.00;8.90;;;;;;;0.98;100.00;101286.55;105689;1259;102037;-79
2023/12/15 01:04:29;;;;;;;16.20;8.90;;;;;;;0.97;100.00;101289.07;106229;1263;99257;-80
2023/12/15 01:07:14;;;;;;;14.70;9.40;;;;;;;0.98;100.00;101287.08;106277;1259;97891;-79
2023/12/15 01:10:00;;;;;;;15.90;9.00;;;;;;;0.98;100.00;101285.98;106352;1259;97971;-79
2023/12/15 01:12:46;;;;;;;14.80;8.50;;;;;;;0.98;100.00;101291.63;106140;1259;98712;-79
2023/12/15 01:15:32;;;;;;;18.80;10.20;;;;;;;0.99;100.00;101297.35;105790;1259;101418;-79
2023/12/15 01:18:18;;;;;;;15.80;9.80;;;;;;;1.01;100.00;101302.30;105575;1259;99145;-78
2023/12/15 01:21:03;;;;;;;14.60;9.60;;;;;;;1.02;100.00;101303.16;105457;1260;98233;-78
2023/12/15 01:23:49;;;;;;;18.50;10.50;;;;;;;1.01;100.00;101305.34;105555;1259;98428;-78
2023/12/15 01:26:35;;;;;;;19.30;10.70;;;;;;;1.00;100.00;101306.46;105633;1263;97909;-78
2023/12/15 01:29:20;;;;;;;19.80;10.40;;;;;;;0.99;100.00;101310.36;105543;1259;101383;-79
2023/12/15 01:32:06;;;;;;;16.30;10.70;;;;;;;0.99;100.00;101314.41;105651;1259;99191;-78
2023/12/15 01:34:51;;;;;;;17.60;10.20;;;;;;;1.02;100.00;101318.23;105507;1259;98457;-79
2023/12/15 01:37:37;;;;;;;17.80;10.30;;;;;;;1.03;100.00;101324.52;105457;1259;98663;-78
2023/12/15 01:40:22;;;;;;;15.30;10.20;;;;;;;1.01;100.00;101328.18;105556;1259;98534;-79
2023/12/15 01:43:08;;;;;;;18.00;10.60;;;;;;;1.00;100.00;101330.34;105547;1260;101487;-78
2023/12/15 01:45:54;;;;;;;20.00;10.50;;;;;;;0.99;100.00;101338.00;105576;1259;100398;-79
2023/12/15 01:48:39;;;;;;;19.00;10.70;;;;;;;0.96;100.00;101340.33;105575;1275;99033;-79
2023/12/15 01:51:25;;;;;;;20.90;10.90;;;;;;;0.94;100.00;101340.95;105455;1259;97907;-79
2023/12/15 01:54:10;;;;;;;18.30;11.20;;;;;;;0.95;100.00;101344.27;105849;1259;98048;-78
2023/12/15 01:56:56;;;;;;;22.20;11.00;;;;;;;0.93;100.00;101348.44;105581;1259;101529;-79
2023/12/15 01:59:46;;;;;;;21.20;10.80;;;;;;;0.91;100.00;101355.30;105601;1259;99048;-78
2023/12/15 02:02:33;;;;;;;;;;;;;;;0.88;100.00;101355.52;105458;1264;97981;-78
2023/12/15 02:05:19;;;;;;;23.60;11.70;;;;;;;0.84;100.00;101358.91;105470;1259;97965;-78
2023/12/15 02:08:05;;;;;;;18.90;10.80;;;;;;;0.85;100.00;101366.42;105674;1260;98499;-78
2023/12/15 02:10:50;;;;;;;20.10;11.70;;;;;;;0.87;100.00;101363.31;105642;1259;101436;-79
2023/12/15 02:13:36;;;;;;;19.90;10.90;;;;;;;0.89;100.00;101364.92;105545;1259;99660;-78
2023/12/15 02:16:22;;;;;;;18.70;10.00;;;;;;;0.90;100.00;101367.30;105779;1263;98008;-79
2023/12/15 02:19:07;;;;;;;19.50;11.00;;;;;;;0.91;100.00;101367.75;106258;1263;97977;-79
2023/12/15 02:21:53;;;;;;;18.80;10.80;;;;;;;0.92;100.00;101366.99;106229;1259;97784;-79
2023/12/15 02:24:39;;;;;;;16.80;10.10;;;;;;;0.94;100.00;101367.02;106321;1259;102736;-79
2023/12/15 02:27:24;;;;;;;19.00;10.90;;;;;;;0.96;100.00;101366.14;106199;1259;99304;-79
2023/12/15 02:30:10;;;;;;;17.00;10.40;;;;;;;0.99;100.00;101356.81;106292;1263;99108;-79
2023/12/15 02:32:55;;;;;;;20.60;12.00;;;;;;;1.04;100.00;101349.92;106301;1263;98051;-79
2023/12/15 02:35:41;;;;;;;22.50;12.40;;;;;;;1.10;100.00;101350.91;106198;1259;98028;-79
2023/12/15 02:38:26;;;;;;;19.50;12.30;;;;;;;1.14;100.00;101361.88;106372;1262;103148;-79
2023/12/15 02:41:12;;;;;;;22.30;12.20;;;;;;;1.15;100.00;101397.16;106339;1259;100420;-80
2023/12/15 02:43:58;;;;;;;21.90;11.90;;;;;;;1.14;100.00;101419.77;106326;1259;97899;-79
2023/12/15 02:46:44;;;;;;;17.50;10.70;;;;;;;1.08;100.00;101406.64;106396;1259;97943;-79
2023/12/15 02:49:30;;;;;;;20.30;11.60;;;;;;;1.03;100.00;101431.27;106365;1263;97427;-79
2023/12/15 02:52:15;;;;;;;21.30;10.70;;;;;;;0.97;100.00;101416.23;106356;1263;102720;-79
2023/12/15 02:55:01;;;;;;;19.30;11.00;;;;;;;0.95;100.00;101426.88;106235;1259;99126;-79
2023/12/15 02:57:47;;;;;;;20.50;11.20;;;;;;;0.96;100.00;101418.73;106196;1259;97997;-79
2023/12/15 03:00:32;;;;;;;22.10;10.80;;;;;;;0.98;100.00;101421.09;106266;1261;97865;-79
2023/12/15 03:03:18;;;;;;;23.00;11.90;;;;;;;0.97;100.00;101428.02;106348;1263;97987;-79
2023/12/15 03:06:04;;;;;;;17.70;10.40;;;;;;;0.97;100.00;101424.99;106123;1259;102712;-80
2023/12/15 03:08:50;;;;;;;18.10;10.40;;;;;;;0.97;100.00;101432.77;106328;1259;100346;-79
2023/12/15 03:11:35;;;;;;;19.10;11.20;;;;;;;0.95;100.00;101430.96;106420;1262;97944;-80
2023/12/15 03:14:21;;;;;;;22.10;10.60;;;;;;;0.94;100.00;101439.83;106476;1259;97889;-79
2023/12/15 03:17:06;;;;;;;21.00;12.20;;;;;;;0.94;100.00;101445.09;106276;1259;97955;-79
2023/12/15 03:19:52;;;;;;;20.30;11.00;;;;;;;0.95;100.00;101444.51;106658;1263;101993;-79
2023/12/15 03:22:38;;;;;;;21.10;12.00;;;;;;;0.96;100.00;101443.88;106227;1259;101362;-79
2023/12/15 03:25:24;;;;;;;20.60;11.60;;;;;;;1.00;100.00;101444.33;106335;1259;98860;-79
2023/12/15 03:28:10;;;;;;;22.10;11.70;;;;;;;1.03;100.00;101452.20;106320;1259;98057;-78
2023/12/15 03:30:56;;;;;;;18.60;10.70;;;;;;;1.05;100.00;101453.67;106270;1259;97891;-79
2023/12/15 03:33:42;;;;;;;20.10;11.60;;;;;;;1.08;100.00;101459.94;106218;1264;101438;-80
2023/12/15 03:36:27;;;;;;;23.70;13.00;;;;;;;1.09;100.00;101465.99;105683;1261;99080;-79
2023/12/15 03:39:13;;;;;;;25.30;13.10;;;;;;;1.12;100.00;101473.56;105550;1259;97890;-79
2023/12/15 03:41:58;;;;;;;24.40;13.30;;;;;;;1.15;100.00;101478.10;105450;1264;98054;-78
2023/12/15 03:44:44;;;;;;;23.10;12.60;;;;;;;1.18;100.00;101478.42;105655;1259;99593;-78
2023/12/15 03:47:30;;;;;;;23.70;12.10;;;;;;;1.18;100.00;101486.30;105626;1259;102092;-79
2023/12/15 03:50:16;;;;;;;23.00;12.70;;;;;;;1.15;100.00;101486.84;105578;1259;99188;-78
2023/12/15 03:53:01;;;;;;;22.10;12.30;;;;;;;1.14;100.00;101487.11;105633;1259;99055;-78
2023/12/15 03:55:47;;;;;;;25.80;13.40;;;;;;;1.12;100.00;101490.64;105670;1263;98428;-79
2023/12/15 03:58:33;;;;;;;22.70;11.90;;;;;;;1.11;100.00;101495.20;105640;1262;97976;-79
2023/12/15 04:01:19;;;;;;;18.70;12.00;;;;;;;1.11;100.00;101495.73;105543;1263;101441;-78
2023/12/15 04:04:04;;;;;;;18.80;11.50;;;;;;;1.13;100.00;101494.93;105651;1259;99100;-78
2023/12/15 04:06:50;;;;;;;20.90;11.40;;;;;;;1.10;100.00;101501.82;105610;1259;100033;-79
2023/12/15 04:09:35;;;;;;;22.00;12.60;;;;;;;1.08;100.00;101504.23;105541;1264;97972;-78
2023/12/15 04:12:21;;;;;;;21.00;11.70;;;;;;;1.09;100.00;101506.61;105663;1263;97981;-79
2023/12/15 04:15:08;;;;;;;17.70;11.10;;;;;;;1.09;100.00;101510.65;105643;1262;103152;-79
2023/12/15 04:17:54;;;;;;;24.20;13.50;;;;;;;1.11;100.00;101517.39;106231;1259;100573;-78
2023/12/15 04:20:41;;;;;;;21.80;12.10;;;;;;;1.14;100.00;101517.03;105689;1259;98640;-78
2023/12/15 04:23:27;;;;;;;24.00;13.90;;;;;;;1.17;100.00;101520.20;105489;1259;98041;-78
2023/12/15 04:26:12;;;;;;;23.00;13.00;;;;;;;1.18;100.00;101525.40;105582;1259;97981;-78
2023/12/15 04:28:57;;;;;;;24.10;12.50;;;;;;;1.15;100.00;101530.70;105689;1259;103791;-79
2023/12/15 04:31:43;;;;;;;24.20;13.40;;;;;;;1.15;100.00;101534.58;105567;1265;99141;-78
2023/12/15 04:34:29;;;;;;;23.30;13.40;;;;;;;1.16;100.00;101535.34;105644;1259;98009;-79
2023/12/15 04:37:14;;;;;;;22.00;12.20;;;;;;;1.17;100.00;101536.55;105657;1259;97888;-79
2023/12/15 04:40:00;;;;;;;24.20;11.60;;;;;;;1.14;100.00;101536.00;105486;1259;98496;-78
2023/12/15 04:42:46;;;;;;;20.60;12.30;;;;;;;1.13;100.00;101537.85;105760;1263;101712;-78
2023/12/15 04:45:32;;;;;;;21.60;12.40;;;;;;;1.14;100.00;101535.48;105747;1259;100341;-79
2023/12/15 04:48:17;;;;;;;25.80;13.10;;;;;;;1.15;100.00;101539.31;105634;1264;98069;-79
2023/12/15 04:51:03;;;;;;;23.80;12.30;;;;;;;1.15;100.00;101531.93;105717;1263;98004;-80
2023/12/15 04:53:49;;;;;;;25.00;12.60;;;;;;;1.15;100.00;101535.42;105622;1259;97926;-78
2023/12/15 04:56:34;;;;;;;24.60;13.00;;;;;;;1.13;100.00;101540.16;105556;1259;101482;-79
2023/12/15 04:59:20;;;;;;;19.90;13.10;;;;;;;1.11;100.00;101547.49;105507;1263;100602;-79
2023/12/15 05:02:06;;;;;;;26.30;14.70;;;;;;;1.11;100.00;101547.27;105546;1264;98065;-79
2023/12/15 05:04:52;;;;;;;26.60;16.40;;;;;;;1.12;100.00;101547.24;105973;1259;97977;-78
2023/12/15 05:07:38;;;;;;;23.50;14.80;;;;;;;1.13;100.00;101553.48;105653;1264;98042;-78
2023/12/15 05:10:23;;;;;;;24.40;14.60;;;;;;;1.13;100.00;101554.73;105726;1259;102025;-79
2023/12/15 05:13:09;;;;;;;28.40;15.10;;;;;;;1.13;100.00;101563.55;105639;1259;99234;-79
2023/12/15 05:15:54;;;;;;;30.70;14.70;;;;;;;1.13;100.00;101569.02;105596;1259;98004;-80
2023/12/15 05:18:40;;;;;;;24.60;14.00;;;;;;;1.11;100.00;101573.16;106094;1261;97950;-79
2023/12/15 05:21:26;;;;;;;31.10;15.80;;;;;;;1.10;100.00;101575.36;105605;1264;98483;-79
2023/12/15 05:24:11;;;;;;;25.70;13.90;;;;;;;1.12;100.00;101574.17;105645;1260;101394;-78
2023/12/15 05:26:57;;;;;;;34.50;15.60;;;;;;;1.14;100.00;101574.55;105599;1259;99159;-78
2023/12/15 05:29:45;;;;;;;27.20;14.90;;;;;;;1.16;100.00;101576.36;105686;1264;97985;-78
2023/12/15 05:32:31;;;;;;;27.40;14.70;;;;;;;1.19;100.00;101579.48;105603;1259;97994;-78
2023/12/15 05:35:17;;;;;;;25.90;14.00;;;;;;;1.21;100.00;101580.55;105711;1265;97956;-79
2023/12/15 05:38:03;;;;;;;28.70;15.00;;;;;;;1.22;100.00;101581.08;105705;1263;101358;-78
2023/12/15 05:40:48;;;;;;;25.10;14.20;;;;;;;1.23;100.00;101578.86;105664;1263;99140;-78
2023/12/15 05:43:34;;;;;;;26.60;15.00;;;;;;;1.24;100.00;101580.58;105608;1263;97956;-78
2023/12/15 05:46:20;;;;;;;30.30;15.80;;;;;;;1.26;100.00;101578.65;105648;1263;97981;-79
2023/12/15 05:49:06;;;;;;;25.30;14.30;;;;;;;1.28;100.00;101578.48;105715;1265;98429;-78
2023/12/15 05:51:51;;;;;;;27.00;14.70;;;;;;;1.30;100.00;101583.63;105621;1259;102630;-79
2023/12/15 05:54:38;;;;;;;26.10;14.10;;;;;;;1.33;100.00;101588.92;105680;1259;99117;-78
2023/12/15 05:57:23;;;;;;;24.80;13.40;;;;;;;1.35;100.00;101595.27;105929;1262;99785;-80
2023/12/15 06:00:09;;;;;;;26.10;13.70;;;;;;;1.37;100.00;101595.14;106400;1259;98841;-80
2023/12/15 06:02:55;;;;;;;28.90;14.90;;;;;;;1.39;100.00;101595.48;106479;1262;98420;-80
2023/12/15 06:05:41;;;;;;;24.10;14.60;;;;;;;1.42;100.00;101597.95;105627;1262;102567;-79
2023/12/15 06:08:26;;;;;;;26.70;14.90;;;;;;;1.44;100.00;101602.58;106668;1262;99531;-80
2023/12/15 06:11:12;;;;;;;27.40;15.60;;;;;;;1.44;100.00;101603.27;106247;1264;97900;-79
2023/12/15 06:13:57;;;;;;;26.20;15.60;;;;;;;1.44;100.00;101607.69;106428;1259;97970;-80
2023/12/15 06:16:43;;;;;;;27.90;16.10;;;;;;;1.44;100.00;101608.88;106274;1264;97931;-79
2023/12/15 06:19:28;;;;;;;29.10;16.60;;;;;;;1.45;100.00;101617.98;106424;1259;101421;-79
2023/12/15 06:22:14;;;;;;;29.90;17.10;;;;;;;1.45;100.00;101625.21;106313;1259;100558;-80
2023/12/15 06:25:00;;;;;;;28.30;16.60;;;;;;;1.43;100.00;101627.84;106356;1259;99561;-79
2023/12/15 06:27:45;;;;;;;30.20;15.90;;;;;;;1.41;100.00;101631.09;106337;1259;98792;-79
2023/12/15 06:30:32;;;;;;;31.60;16.20;;;;;;;1.42;100.00;101634.39;106338;1259;98434;-79
2023/12/15 06:33:17;;;;;;;26.50;14.30;;;;;;;1.42;100.00;101642.98;106155;1259;102087;-79
2023/12/15 06:36:03;;;;;;;30.70;16.40;;;;;;;1.41;100.00;101648.73;105994;1264;99173;-77
2023/12/15 06:38:49;;;;;;;28.10;15.20;;;;;;;1.40;100.00;101655.29;106217;1263;97896;-80
2023/12/15 06:41:34;;;;;;;26.10;16.00;;;;;;;1.39;100.00;101659.04;106126;1264;97897;-78
2023/12/15 06:44:19;;;;;;;30.10;15.20;;;;;;;1.39;100.00;101660.31;106302;1264;98390;-79
2023/12/15 06:47:05;;;;;;;25.60;15.70;;;;;;;1.40;100.00;101665.50;106319;1259;102544;-79
2023/12/15 06:49:51;;;;;;;29.00;15.70;;;;;;;1.41;100.00;101667.18;105846;1259;100798;-79
2023/12/15 06:52:36;;;;;;;29.40;15.10;;;;;;;1.39;100.00;101669.23;106103;1259;97997;-78
2023/12/15 06:55:22;;;;;;;28.90;16.20;;;;;;;1.38;100.00;101669.34;106333;1259;97917;-79
2023/12/15 06:58:07;;;;;;;25.90;15.60;;;;;;;1.38;100.00;101668.81;105747;1263;98003;-78
2023/12/15 07:00:53;;;;;;;28.00;15.70;;;;;;;1.40;100.00;101673.08;105561;1259;102680;-78
2023/12/15 07:03:39;;;;;;;28.00;16.90;;;;;;;1.41;100.00;101676.86;106180;1263;100827;-79
2023/12/15 07:06:24;;;;;;;27.20;15.50;;;;;;;1.42;100.00;101677.72;105998;1263;98749;-79
2023/12/15 07:09:11;;;;;;;26.70;15.40;;;;;;;1.41;100.00;101682.14;106292;1259;98034;-79
2023/12/15 07:11:58;;;;;;;27.30;16.50;;;;;;;1.39;100.00;101684.55;106395;1259;96374;-79
2023/12/15 07:14:43;;;;;;;29.70;17.30;;;;;;;1.38;100.00;101686.75;106327;1264;102490;-79
2023/12/15 07:17:28;;;;;;;31.50;16.80;;;;;;;1.38;100.00;101691.84;106438;1263;99115;-80
2023/12/15 07:20:15;;;;;;;27.50;15.90;;;;;;;1.39;100.00;101692.66;106267;1259;97770;-78
2023/12/15 07:23:01;;;;;;;29.10;16.50;;;;;;;1.42;100.00;101695.80;106682;1259;98040;-79
2023/12/15 07:25:48;;;;;;;27.60;16.40;;;;;;;1.44;100.00;101702.02;106203;1267;99634;-79
2023/12/15 07:28:33;;;;;;;31.30;18.10;;;;;;;1.44;100.00;101702.70;106308;1263;102630;-80
2023/12/15 07:31:19;;;;;;;34.00;18.90;;;;;;;1.44;100.00;101709.92;105869;1259;101211;-79
2023/12/15 07:34:05;;;;;;;35.70;20.90;;;;;;;1.43;100.00;101719.11;106213;1259;97867;-79
2023/12/15 07:36:51;;;;;;;41.50;22.80;;;;;;;1.39;100.00;101721.85;106310;1265;97967;-79
2023/12/15 07:39:36;;;;;;;40.00;22.80;;;;;;;1.36;100.00;101726.30;106346;1263;98547;-79
2023/12/15 07:42:22;;;;;;;41.00;22.60;;;;;;;1.35;100.00;101731.85;106412;1259;101366;-80
2023/12/15 07:45:08;;;;;;;38.80;22.70;;;;;;;1.34;100.00;101735.58;106173;1259;99260;-79
2023/12/15 07:47:54;;;;;;;42.50;24.10;;;;;;;1.36;100.00;101738.40;105939;1259;98666;-79
2023/12/15 07:50:39;;;;;;;42.40;24.90;;;;;;;1.41;100.00;101747.10;106235;1264;98759;-79
2023/12/15 07:53:25;;;;;;;42.40;25.90;;;;;;;1.41;100.00;101746.19;106336;1259;98406;-80
2023/12/15 07:56:27;;;;;;;40.40;23.60;;;;;;;1.41;100.00;101747.95;106263;1259;102662;-79
2023/12/15 07:59:13;;;;;;;48.00;28.10;;;;;;;1.39;100.00;101752.99;106295;1259;99129;-79
2023/12/15 08:01:59;;;;;;;39.80;21.50;;;;;;;1.39;100.00;101756.92;106201;1264;97916;-79
2023/12/15 08:04:46;;;;;;;40.20;22.60;;;;;;;1.38;100.00;101762.05;106075;1263;97940;-79
2023/12/15 08:07:31;;;;;;;39.50;23.10;;;;;;;1.38;100.00;101765.73;105929;1264;97791;-79
2023/12/15 08:10:17;;;;;;;37.40;20.50;;;;;;;1.39;100.00;101765.16;106110;1263;101408;-78
2023/12/15 08:13:03;;;;;;;36.60;20.20;;;;;;;1.40;100.00;101754.71;105945;1268;100456;-79
2023/12/15 08:15:49;;;;;;;38.70;22.30;;;;;;;1.41;100.00;101749.70;105502;1264;98345;-85
2023/12/15 08:18:34;;;;;;;38.20;22.10;;;;;;;1.42;100.00;101756.91;105867;1261;97943;-82
2023/12/15 08:21:20;;;;;;;40.00;23.30;;;;;;;1.41;100.00;101759.02;106060;1259;98010;-82
2023/12/15 08:24:06;;;;;;;40.30;22.70;;;;;;;1.43;100.00;101767.20;105903;1260;101451;-82
2023/12/15 08:26:53;;;;;;;39.50;23.50;;;;;;;1.44;100.00;101769.94;105914;1259;99162;-82
2023/12/15 08:29:41;;;;;;;36.30;21.00;;;;;;;1.45;100.00;101769.15;106023;1262;98423;-81
2023/12/15 08:32:27;;;;;;;42.90;22.50;;;;;;;1.43;100.00;101773.87;105559;1263;97961;-80
2023/12/15 08:35:13;;;;;;;38.30;22.20;;;;;;;1.43;100.00;101782.52;106045;1265;98183;-79
2023/12/15 08:37:59;;;;;;;38.40;20.90;;;;;;;1.48;100.00;101788.84;106094;1261;101532;-81
2023/12/15 08:40:44;;;;;;;41.60;22.60;;;;;;;1.51;100.00;101790.95;106036;1264;100102;-82
2023/12/15 08:43:29;;;;;;;43.50;23.00;;;;;;;1.53;100.00;101793.23;106115;1259;97999;-81
2023/12/15 08:46:15;;;;;;;49.10;24.90;;;;;;;1.58;100.00;101803.52;106297;1259;98010;-81
2023/12/15 08:49:01;;;;;;;40.70;23.50;;;;;;;1.61;100.00;101805.80;106291;1259;98431;-81
2023/12/15 08:51:47;;;;;;;45.60;24.90;;;;;;;1.65;100.00;101806.79;105921;1263;152040;-85
2023/12/15 08:54:33;;;;;;;72.20;36.90;;;;;;;1.69;100.00;101811.21;105854;1265;100280;-77
2023/12/15 08:57:20;;;;;;;56.60;32.50;;;;;;;1.73;100.00;101815.17;105286;1260;98485;-82
2023/12/15 09:00:06;;;;;;;51.50;28.70;;;;;;;1.77;100.00;101824.80;106094;1259;97968;-85
2023/12/15 09:02:53;;;;;;;50.80;26.80;;;;;;;1.77;100.00;101827.60;106050;1263;97907;-81
2023/12/15 09:05:39;;;;;;;45.90;25.30;;;;;;;1.77;100.00;101835.00;105828;1265;101289;-82
2023/12/15 09:08:27;;;;;;;46.00;25.10;;;;;;;1.76;100.00;101837.17;105980;1259;100449;-82
2023/12/15 09:11:12;;;;;;;49.90;26.80;;;;;;;1.77;100.00;101832.71;106045;1259;97943;-81
2023/12/15 09:14:00;;;;;;;49.80;26.80;;;;;;;1.79;100.00;101832.25;106002;1264;97864;-85
2023/12/15 09:16:47;;;;;;;53.70;29.60;;;;;;;1.79;100.00;101832.92;106050;1262;97958;-85
2023/12/15 09:19:34;;;;;;;52.90;29.40;;;;;;;1.81;100.00;101840.04;106182;1265;101472;-82
2023/12/15 09:22:20;;;;;;;49.50;26.90;;;;;;;1.84;100.00;101845.50;106478;1262;100912;-85
2023/12/15 09:25:07;;;;;;;50.40;26.80;;;;;;;1.89;100.00;101846.75;105917;1259;99182;-80
2023/12/15 09:27:53;;;;;;;53.00;27.30;;;;;;;1.90;100.00;101853.85;105992;1264;98158;-81
2023/12/15 09:30:38;;;;;;;45.50;25.50;;;;;;;1.92;100.00;101857.09;106071;1265;97956;-80
2023/12/15 09:33:24;;;;;;;53.90;27.90;;;;;;;1.93;100.00;101856.67;106273;1262;102341;-79
2023/12/15 09:36:11;;;;;;;55.70;30.10;;;;;;;1.94;100.00;101855.36;105562;1259;99169;-78
2023/12/15 09:38:57;;;;;;;52.00;29.10;;;;;;;1.94;100.00;101851.48;105667;1265;98131;-79
2023/12/15 09:41:43;;;;;;;57.70;29.60;;;;;;;1.96;100.00;101847.69;105585;1268;97808;-80
2023/12/15 09:44:28;;;;;;;53.20;28.40;;;;;;;1.98;100.00;101848.78;106077;1259;97788;-80
2023/12/15 09:47:14;;;;;;;50.30;27.10;;;;;;;2.00;100.00;101850.70;106404;1263;101709;-80
2023/12/15 09:50:04;;;;;;;52.40;28.50;;;;;;;2.02;100.00;101857.30;106358;1261;100413;-80
2023/12/15 09:52:50;;;;;;;52.40;27.30;;;;;;;2.04;100.00;101861.38;105736;1265;98986;-77
2023/12/15 09:55:36;;;;;;;51.20;26.80;;;;;;;2.08;100.00;101856.88;106393;1261;97970;-81
2023/12/15 09:58:23;;;;;;;49.20;28.00;;;;;;;2.08;100.00;101844.90;106392;1259;99537;-79
2023/12/15 10:01:10;;;;;;;54.90;30.70;;;;;;;2.08;100.00;101845.07;106139;1260;101740;-79
2023/12/15 10:03:56;;;;;;;60.20;32.10;;;;;;;2.11;100.00;101849.48;105979;1259;99145;-79
2023/12/15 10:06:42;;;;;;;48.20;26.80;;;;;;;2.14;100.00;101857.67;105731;1260;99605;-81
2023/12/15 10:09:28;;;;;;;48.10;28.10;;;;;;;2.16;100.00;101851.40;106222;1259;97952;-80
2023/12/15 10:12:14;;;;;;;46.80;27.50;;;;;;;2.16;100.00;101857.95;106435;1263;97862;-80
2023/12/15 10:15:00;;;;;;;46.70;26.70;;;;;;;2.15;100.00;101858.73;106615;1261;102746;-80
2023/12/15 10:17:46;;;;;;;47.50;26.00;;;;;;;2.15;100.00;101861.54;105893;1261;99233;-81
2023/12/15 10:20:32;;;;;;;53.50;28.20;;;;;;;2.16;100.00;101863.39;106278;1260;98997;-80
2023/12/15 10:23:26;;;;;;;72.20;35.20;;;;;;;2.16;100.00;101865.02;106475;1265;98227;-81
2023/12/15 10:26:14;;;;;;;54.60;28.80;;;;;;;2.15;100.00;101869.10;106287;1264;97951;-81
2023/12/15 10:28:59;;;;;;;48.50;27.10;;;;;;;2.17;100.00;101868.29;106529;1265;102680;-81
2023/12/15 10:31:45;;;;;;;47.00;25.90;;;;;;;2.20;100.00;101868.02;106471;1263;99994;-80
2023/12/15 10:34:32;;;;;;;54.50;28.10;;;;;;;2.23;100.00;101864.67;105920;1259;97980;-86
2023/12/15 10:37:19;;;;;;;56.10;28.40;;;;;;;2.26;100.00;101871.37;106030;1259;97787;-78
2023/12/15 10:40:05;;;;;;;49.70;29.50;;;;;;;2.27;100.00;101863.49;105864;1264;97878;-86
2023/12/15 10:42:53;;;;;;;51.40;29.70;;;;;;;2.31;100.00;101852.33;106325;1261;101983;-78
2023/12/15 10:45:39;;;;;;;53.30;29.10;;;;;;;2.37;100.00;101859.15;106152;1264;101518;-85
2023/12/15 10:48:25;;;;;;;50.40;30.00;;;;;;;2.39;100.00;101862.35;106258;1260;98016;-80
2023/12/15 10:51:13;;;;;;;49.70;27.50;;;;;;;2.45;100.00;101863.92;105702;1263;98097;-84
2023/12/15 10:54:01;;;;;;;45.60;26.00;;;;;;;2.47;100.00;101868.89;105997;1263;99021;-83
2023/12/15 10:56:51;;;;;;;44.50;25.40;;;;;;;2.48;100.00;101877.59;106192;1268;102706;-78
2023/12/15 10:59:39;;;;;;;44.90;24.60;;;;;;;2.49;100.00;101879.16;105694;1260;109799;-79
2023/12/15 11:02:31;;;;;;;50.50;28.10;;;;;;;2.50;100.00;101881.02;106080;1264;99082;-78
2023/12/15 11:05:17;;;;;;;48.00;27.80;;;;;;;2.52;100.00;101878.08;105667;1264;97960;-78
2023/12/15 11:08:03;;;;;;;47.30;25.50;;;;;;;2.54;100.00;101878.98;105832;1272;97943;-79
2023/12/15 11:10:50;;;;;;;43.30;25.20;;;;;;;2.52;100.00;101881.55;105466;1261;101985;-79
2023/12/15 11:13:58;;;;;;;48.80;27.90;;;;;;;2.52;100.00;101889.85;105310;1263;99688;-78
2023/12/15 11:16:45;;;;;;;46.10;25.30;;;;;;;2.55;100.00;101896.19;105258;1261;108404;-78
2023/12/15 11:19:30;;;;;;;48.00;23.90;;;;;;;2.57;100.00;101902.75;105219;1259;98001;-77
2023/12/15 11:22:17;;;;;;;46.30;24.50;;;;;;;2.58;100.00;101905.49;105533;1263;97883;-78
2023/12/15 11:25:03;;;;;;;42.80;23.70;;;;;;;2.60;100.00;101907.27;105572;1263;101384;-77
2023/12/15 11:28:10;;;;;;;42.00;23.30;;;;;;;2.59;100.00;101910.02;105428;1273;99133;-79
2023/12/15 11:30:56;;;;;;;38.70;21.90;;;;;;;2.59;100.00;101917.77;105599;1263;97970;-77
2023/12/15 11:33:42;;;;;;;41.90;23.30;;;;;;;2.57;100.00;101916.48;105292;1272;97983;-77
2023/12/15 11:36:30;;;;;;;37.90;23.10;;;;;;;2.54;100.00;101909.47;105337;1261;99101;-77
2023/12/15 11:39:16;;;;;;;40.60;23.70;;;;;;;2.52;100.00;101912.45;105542;1263;101369;-76
2023/12/15 11:42:02;;;;;;;43.70;25.10;;;;;;;2.52;100.00;101914.69;105587;1264;100340;-78
2023/12/15 11:44:48;;;;;;;43.40;25.90;;;;;;;2.54;100.00;101910.70;105810;1263;98978;-79
2023/12/15 11:47:34;;;;;;;40.50;23.90;;;;;;;2.55;100.00;101909.77;106112;1264;95875;-79
2023/12/15 11:50:21;;;;;;;42.90;25.30;;;;;;;2.56;100.00;101912.14;105958;1265;97783;-79
2023/12/15 11:53:09;;;;;;;44.10;25.70;;;;;;;2.56;100.00;101914.46;105977;1263;102611;-80
2023/12/15 11:55:57;;;;;;;47.20;26.20;;;;;;;2.55;100.00;101914.14;106120;1264;99777;-79
2023/12/15 11:58:42;;;;;;;50.60;28.10;;;;;;;2.57;100.00;101912.64;105919;1263;97775;-79
2023/12/15 12:01:35;;;;;;;49.80;28.90;;;;;;;2.62;100.00;101917.72;105945;1263;97846;-80
2023/12/15 12:04:21;;;;;;;46.50;27.60;;;;;;;2.67;100.00;101923.23;105941;1260;97893;-80
2023/12/15 12:07:06;;;;;;;46.80;27.40;;;;;;;2.70;100.00;101922.33;106018;1266;101452;-80
2023/12/15 12:09:52;;;;;;;54.10;28.90;;;;;;;2.71;100.00;101919.05;106012;1260;99184;-78
2023/12/15 12:12:38;;;;;;;49.60;26.90;;;;;;;2.74;100.00;101920.59;105862;1263;98985;-79
2023/12/15 12:15:23;;;;;;;75.40;36.30;;;;;;;2.75;100.00;101926.38;105969;1261;98540;-80
2023/12/15 12:18:08;;;;;;;58.50;30.40;;;;;;;2.72;100.00;101931.14;106121;1260;97913;-79
2023/12/15 12:20:56;;;;;;;71.40;32.80;;;;;;;2.73;100.00;101934.96;106058;1263;101383;-80
2023/12/15 12:23:42;;;;;;;76.10;37.40;;;;;;;2.74;100.00;101932.78;106011;1260;99291;-79